JTD519 EKBI-LGRP
Flight info
| Callsign | JTD519 |
|---|---|
| Flight time | N/A |
| Altitude | 37000 |
| Route | RIDSI DCT NIKDA DCT BODLA DCT DISEK DCT REGLI DCT BILNA DCT BALAP DCT PARAK DCT NISVA Y505 NIKTI DCT MES UN139 LURUS |
| Aircraft | B738/M-SDE2E3FGHIRWXY/LB1 |
Departure
| Time | 2026-04-30 12:44 |
|---|---|
| Airport | Billund Airport (EKBI) |
Arrival
| Time | N/A |
|---|---|
| Airport | Rhodes International Airport "Diagoras" (LGRP) |
| Time | Latitude | Longitude | Altitude | Speed | Heading |
|---|---|---|---|---|---|
| 2026-04-30 12:10 | 55.74530 | 9.14815 | 215 ft | 0 kts | 357° |
| 2026-04-30 12:32 | 55.74519 | 9.14816 | 219 ft | 4 kts | 357° |
| 2026-04-30 12:32 | 55.74492 | 9.14818 | 215 ft | 4 kts | 357° |
| 2026-04-30 12:32 | 55.74465 | 9.14820 | 216 ft | 4 kts | 357° |
| 2026-04-30 12:32 | 55.74441 | 9.14822 | 220 ft | 1 kts | 357° |
| 2026-04-30 12:37 | 55.74442 | 9.14824 | 220 ft | 0 kts | 14° |
| 2026-04-30 12:37 | 55.74444 | 9.14834 | 219 ft | 3 kts | 62° |
| 2026-04-30 12:38 | 55.74449 | 9.14925 | 215 ft | 11 kts | 103° |
| 2026-04-30 12:38 | 55.74382 | 9.14981 | 223 ft | 11 kts | 176° |
| 2026-04-30 12:38 | 55.74303 | 9.14989 | 219 ft | 11 kts | 177° |
| 2026-04-30 12:38 | 55.74227 | 9.14997 | 224 ft | 11 kts | 172° |
| 2026-04-30 12:39 | 55.74198 | 9.15105 | 215 ft | 11 kts | 85° |
| 2026-04-30 12:39 | 55.74203 | 9.15249 | 215 ft | 15 kts | 86° |
| 2026-04-30 12:39 | 55.74209 | 9.15469 | 215 ft | 20 kts | 87° |
| 2026-04-30 12:39 | 55.74218 | 9.15727 | 219 ft | 21 kts | 87° |
| 2026-04-30 12:40 | 55.74225 | 9.15976 | 218 ft | 20 kts | 86° |
| 2026-04-30 12:40 | 55.74233 | 9.16217 | 219 ft | 20 kts | 86° |
| 2026-04-30 12:40 | 55.74241 | 9.16471 | 215 ft | 21 kts | 86° |
| 2026-04-30 12:40 | 55.74249 | 9.16720 | 215 ft | 20 kts | 87° |
| 2026-04-30 12:41 | 55.74256 | 9.16962 | 219 ft | 19 kts | 86° |
| 2026-04-30 12:41 | 55.74264 | 9.17210 | 215 ft | 22 kts | 87° |
| 2026-04-30 12:41 | 55.74273 | 9.17486 | 215 ft | 22 kts | 87° |
| 2026-04-30 12:41 | 55.74281 | 9.17756 | 224 ft | 22 kts | 86° |
| 2026-04-30 12:42 | 55.74286 | 9.18007 | 215 ft | 17 kts | 95° |
| 2026-04-30 12:42 | 55.74214 | 9.18144 | 218 ft | 16 kts | 169° |
| 2026-04-30 12:42 | 55.74125 | 9.18074 | 215 ft | 15 kts | 256° |
| 2026-04-30 12:42 | 55.74118 | 9.17888 | 218 ft | 15 kts | 267° |
| 2026-04-30 12:43 | 55.74111 | 9.17656 | 215 ft | 31 kts | 267° |
| 2026-04-30 12:43 | 55.74086 | 9.16871 | 215 ft | 97 kts | 267° |
| 2026-04-30 12:43 | 55.74040 | 9.15337 | 223 ft | 149 kts | 266° |
| 2026-04-30 12:43 | 55.73997 | 9.13444 | 812 ft | 152 kts | 266° |
| 2026-04-30 12:44 | 55.74093 | 9.11556 | 1446 ft | 166 kts | 292° |
| 2026-04-30 12:44 | 55.74914 | 9.10037 | 1963 ft | 182 kts | 335° |
| 2026-04-30 12:44 | 55.76196 | 9.10015 | 2654 ft | 200 kts | 16° |
| 2026-04-30 12:44 | 55.77368 | 9.11541 | 3081 ft | 223 kts | 52° |
| 2026-04-30 12:45 | 55.77849 | 9.14156 | 3694 ft | 230 kts | 90° |
| 2026-04-30 12:45 | 55.77474 | 9.16956 | 4240 ft | 242 kts | 109° |
| 2026-04-30 12:45 | 55.76839 | 9.19907 | 4596 ft | 265 kts | 110° |
| 2026-04-30 12:45 | 55.76146 | 9.22970 | 5397 ft | 268 kts | 110° |
| 2026-04-30 12:46 | 55.75451 | 9.26036 | 6122 ft | 267 kts | 110° |
| 2026-04-30 12:46 | 55.74766 | 9.29082 | 6572 ft | 266 kts | 109° |
| 2026-04-30 12:46 | 55.74083 | 9.32145 | 7402 ft | 267 kts | 109° |
| 2026-04-30 12:46 | 55.73399 | 9.35230 | 8179 ft | 270 kts | 109° |
| 2026-04-30 12:47 | 55.72720 | 9.38312 | 8890 ft | 273 kts | 109° |
| 2026-04-30 12:47 | 55.72028 | 9.41454 | 9717 ft | 274 kts | 109° |
| 2026-04-30 12:47 | 55.71331 | 9.44620 | 10487 ft | 277 kts | 109° |
| 2026-04-30 12:47 | 55.70619 | 9.47861 | 10924 ft | 292 kts | 109° |
| 2026-04-30 12:48 | 55.69854 | 9.51353 | 11084 ft | 315 kts | 109° |
| 2026-04-30 12:48 | 55.69030 | 9.55102 | 11254 ft | 336 kts | 109° |
| 2026-04-30 12:48 | 55.68157 | 9.59063 | 11533 ft | 352 kts | 109° |
| 2026-04-30 12:48 | 55.67254 | 9.63147 | 12097 ft | 358 kts | 109° |
| 2026-04-30 12:49 | 55.66340 | 9.67268 | 12815 ft | 359 kts | 109° |
| 2026-04-30 12:49 | 55.65425 | 9.71393 | 13534 ft | 362 kts | 109° |
| 2026-04-30 12:49 | 55.64498 | 9.75567 | 14238 ft | 365 kts | 109° |
| 2026-04-30 12:49 | 55.63575 | 9.79712 | 14876 ft | 368 kts | 108° |
| 2026-04-30 12:50 | 55.62629 | 9.83957 | 15511 ft | 372 kts | 108° |
| 2026-04-30 12:50 | 55.61674 | 9.88237 | 16144 ft | 376 kts | 108° |
| 2026-04-30 12:50 | 55.60706 | 9.92560 | 16774 ft | 380 kts | 108° |
| 2026-04-30 12:50 | 55.59724 | 9.96926 | 17388 ft | 384 kts | 109° |
| 2026-04-30 12:51 | 55.58515 | 10.01185 | 17987 ft | 392 kts | 119° |
| 2026-04-30 12:51 | 55.56930 | 10.05155 | 18610 ft | 397 kts | 123° |
| 2026-04-30 12:51 | 55.55282 | 10.09107 | 19151 ft | 401 kts | 122° |
| 2026-04-30 12:51 | 55.53613 | 10.13086 | 19661 ft | 406 kts | 122° |
| 2026-04-30 12:52 | 55.51929 | 10.17108 | 20159 ft | 409 kts | 122° |
| 2026-04-30 12:52 | 55.50229 | 10.21183 | 20667 ft | 413 kts | 122° |
| 2026-04-30 12:52 | 55.48521 | 10.25289 | 21150 ft | 417 kts | 122° |
| 2026-04-30 12:52 | 55.46796 | 10.29440 | 21634 ft | 421 kts | 122° |
| 2026-04-30 12:53 | 55.45056 | 10.33629 | 22129 ft | 425 kts | 122° |
| 2026-04-30 12:53 | 55.43326 | 10.37791 | 22584 ft | 429 kts | 123° |
| 2026-04-30 12:53 | 55.41555 | 10.42048 | 23042 ft | 432 kts | 123° |
| 2026-04-30 12:53 | 55.39765 | 10.46340 | 23477 ft | 436 kts | 123° |
| 2026-04-30 12:54 | 55.37960 | 10.50664 | 23936 ft | 440 kts | 123° |
| 2026-04-30 12:54 | 55.36136 | 10.55024 | 24324 ft | 443 kts | 123° |
| 2026-04-30 12:54 | 55.34323 | 10.59351 | 24704 ft | 446 kts | 123° |
| 2026-04-30 12:54 | 55.32454 | 10.63800 | 25097 ft | 448 kts | 123° |
| 2026-04-30 12:55 | 55.30625 | 10.68149 | 25491 ft | 450 kts | 123° |
| 2026-04-30 12:55 | 55.28762 | 10.72567 | 25916 ft | 451 kts | 123° |
| 2026-04-30 12:55 | 55.26887 | 10.77011 | 26264 ft | 454 kts | 123° |
| 2026-04-30 12:55 | 55.25000 | 10.81473 | 26580 ft | 457 kts | 123° |
| 2026-04-30 12:56 | 55.23096 | 10.85968 | 26913 ft | 460 kts | 123° |
| 2026-04-30 12:56 | 55.21182 | 10.90478 | 27245 ft | 462 kts | 123° |
| 2026-04-30 12:56 | 55.19256 | 10.95008 | 27582 ft | 464 kts | 123° |
| 2026-04-30 12:56 | 55.17321 | 10.99551 | 27900 ft | 467 kts | 123° |
| 2026-04-30 12:57 | 55.15396 | 11.04061 | 28218 ft | 469 kts | 123° |
| 2026-04-30 12:57 | 55.13436 | 11.08645 | 28488 ft | 473 kts | 123° |
| 2026-04-30 12:57 | 55.11462 | 11.13255 | 28761 ft | 475 kts | 123° |
| 2026-04-30 12:57 | 55.09472 | 11.17891 | 29067 ft | 477 kts | 123° |
| 2026-04-30 12:58 | 55.07483 | 11.22516 | 29494 ft | 476 kts | 123° |
| 2026-04-30 12:58 | 55.05496 | 11.27127 | 29953 ft | 475 kts | 124° |
| 2026-04-30 12:58 | 55.03506 | 11.31736 | 30416 ft | 473 kts | 124° |
| 2026-04-30 12:58 | 55.01524 | 11.36319 | 30767 ft | 473 kts | 124° |
| 2026-04-30 12:59 | 54.99537 | 11.40905 | 31091 ft | 473 kts | 124° |
| 2026-04-30 12:59 | 54.97575 | 11.45427 | 31446 ft | 472 kts | 124° |
| 2026-04-30 12:59 | 54.95601 | 11.49966 | 31873 ft | 469 kts | 124° |
| 2026-04-30 12:59 | 54.93633 | 11.54483 | 32283 ft | 468 kts | 123° |
| 2026-04-30 13:00 | 54.91670 | 11.58982 | 32632 ft | 467 kts | 123° |
| 2026-04-30 13:00 | 54.89705 | 11.63478 | 32930 ft | 467 kts | 123° |
| 2026-04-30 13:00 | 54.87739 | 11.67968 | 33246 ft | 467 kts | 123° |
| 2026-04-30 13:00 | 54.85772 | 11.72452 | 33602 ft | 466 kts | 124° |
| 2026-04-30 13:01 | 54.83806 | 11.76925 | 33946 ft | 465 kts | 124° |
| 2026-04-30 13:01 | 54.81843 | 11.81384 | 34251 ft | 464 kts | 124° |
| 2026-04-30 13:01 | 54.79881 | 11.85832 | 34547 ft | 464 kts | 124° |
| 2026-04-30 13:01 | 54.77919 | 11.90274 | 34828 ft | 464 kts | 124° |
| 2026-04-30 13:02 | 54.75957 | 11.94704 | 35090 ft | 463 kts | 124° |
| 2026-04-30 13:02 | 54.73997 | 11.99125 | 35358 ft | 463 kts | 123° |
| 2026-04-30 13:02 | 54.72037 | 12.03535 | 35674 ft | 461 kts | 123° |
| 2026-04-30 13:02 | 54.70109 | 12.07867 | 35956 ft | 460 kts | 123° |
| 2026-04-30 13:03 | 54.68157 | 12.12249 | 36165 ft | 460 kts | 124° |
| 2026-04-30 13:03 | 54.66198 | 12.16639 | 36352 ft | 461 kts | 124° |
| 2026-04-30 13:03 | 54.64239 | 12.21021 | 36599 ft | 461 kts | 124° |
| 2026-04-30 13:03 | 54.62281 | 12.25390 | 36894 ft | 459 kts | 124° |
| 2026-04-30 13:04 | 54.60281 | 12.29686 | 37131 ft | 460 kts | 129° |
| 2026-04-30 13:04 | 54.58038 | 12.33670 | 37299 ft | 463 kts | 132° |
| 2026-04-30 13:04 | 54.55708 | 12.37522 | 37447 ft | 465 kts | 133° |
| 2026-04-30 13:04 | 54.53339 | 12.41346 | 37456 ft | 469 kts | 133° |
| 2026-04-30 13:05 | 54.48582 | 12.49027 | 37476 ft | 474 kts | 133° |
| 2026-04-30 13:06 | 54.41386 | 12.60813 | 37466 ft | 477 kts | 132° |
| 2026-04-30 13:06 | 54.36587 | 12.68704 | 37469 ft | 478 kts | 132° |
| 2026-04-30 13:07 | 54.31785 | 12.76575 | 37462 ft | 477 kts | 132° |
| 2026-04-30 13:07 | 54.27791 | 12.83100 | 37465 ft | 476 kts | 132° |
| 2026-04-30 13:08 | 54.22990 | 12.90915 | 37469 ft | 476 kts | 131° |
| 2026-04-30 13:08 | 54.18198 | 12.98689 | 37464 ft | 474 kts | 132° |
| 2026-04-30 13:09 | 54.13404 | 13.06441 | 37461 ft | 473 kts | 132° |
| 2026-04-30 13:09 | 54.08624 | 13.14145 | 37460 ft | 472 kts | 132° |
| 2026-04-30 13:10 | 54.03845 | 13.21823 | 37458 ft | 472 kts | 132° |
| 2026-04-30 13:10 | 53.99065 | 13.29475 | 37477 ft | 472 kts | 131° |
| 2026-04-30 13:11 | 53.94280 | 13.37110 | 37464 ft | 472 kts | 131° |
| 2026-04-30 13:11 | 53.89521 | 13.44679 | 37455 ft | 472 kts | 131° |
| 2026-04-30 13:12 | 53.84727 | 13.52280 | 37449 ft | 471 kts | 131° |
| 2026-04-30 13:12 | 53.79932 | 13.59856 | 37451 ft | 471 kts | 131° |
| 2026-04-30 13:13 | 53.72749 | 13.71158 | 37456 ft | 472 kts | 131° |
| 2026-04-30 13:14 | 53.65525 | 13.82471 | 37446 ft | 472 kts | 131° |
| 2026-04-30 13:14 | 53.58296 | 13.93734 | 37448 ft | 472 kts | 131° |
| 2026-04-30 13:15 | 53.51070 | 14.04941 | 37443 ft | 472 kts | 131° |
| 2026-04-30 13:16 | 53.46229 | 14.12417 | 37450 ft | 473 kts | 130° |
| 2026-04-30 13:16 | 53.41377 | 14.19888 | 37454 ft | 473 kts | 131° |
| 2026-04-30 13:17 | 53.34088 | 14.31066 | 37446 ft | 473 kts | 131° |
| 2026-04-30 13:18 | 53.26773 | 14.42158 | 37441 ft | 475 kts | 133° |
| 2026-04-30 13:18 | 53.18981 | 14.52413 | 37445 ft | 479 kts | 135° |
| 2026-04-30 13:19 | 53.13674 | 14.59239 | 37438 ft | 478 kts | 135° |
| 2026-04-30 13:19 | 53.08467 | 14.66004 | 37440 ft | 478 kts | 135° |
| 2026-04-30 13:20 | 53.03229 | 14.72819 | 37435 ft | 478 kts | 135° |
| 2026-04-30 13:20 | 52.97987 | 14.79616 | 37433 ft | 477 kts | 135° |
| 2026-04-30 13:21 | 52.92746 | 14.86386 | 37431 ft | 477 kts | 135° |
| 2026-04-30 13:22 | 52.84630 | 14.96080 | 37436 ft | 480 kts | 139° |
| 2026-04-30 13:22 | 52.76363 | 15.05504 | 37436 ft | 480 kts | 138° |
| 2026-04-30 13:23 | 52.68176 | 15.14930 | 37427 ft | 480 kts | 138° |
| 2026-04-30 13:24 | 52.57210 | 15.27543 | 37446 ft | 481 kts | 138° |
| 2026-04-30 13:25 | 52.46225 | 15.40093 | 37438 ft | 481 kts | 138° |
| 2026-04-30 13:26 | 52.32507 | 15.55653 | 37479 ft | 481 kts | 138° |
| 2026-04-30 13:28 | 52.18715 | 15.71178 | 37454 ft | 481 kts | 138° |
| 2026-04-30 13:28 | 52.10433 | 15.80443 | 37455 ft | 481 kts | 138° |
| 2026-04-30 13:29 | 51.99409 | 15.92712 | 37443 ft | 482 kts | 138° |
| 2026-04-30 13:31 | 51.85534 | 16.08046 | 37437 ft | 483 kts | 139° |
| 2026-04-30 13:32 | 51.71632 | 16.23294 | 37457 ft | 485 kts | 139° |
| 2026-04-30 13:33 | 51.60437 | 16.35491 | 37436 ft | 486 kts | 139° |
| 2026-04-30 13:34 | 51.52019 | 16.44612 | 37439 ft | 487 kts | 139° |
| 2026-04-30 13:35 | 51.40801 | 16.56705 | 37436 ft | 488 kts | 139° |
| 2026-04-30 13:36 | 51.29513 | 16.68798 | 37432 ft | 488 kts | 139° |
| 2026-04-30 13:36 | 51.21034 | 16.77835 | 37440 ft | 488 kts | 139° |
| 2026-04-30 13:37 | 51.12545 | 16.86842 | 37451 ft | 489 kts | 139° |
| 2026-04-30 13:38 | 51.04044 | 16.95820 | 37433 ft | 488 kts | 139° |
| 2026-04-30 13:39 | 50.92700 | 17.07740 | 37423 ft | 489 kts | 140° |
| 2026-04-30 13:40 | 50.84194 | 17.16632 | 37448 ft | 489 kts | 140° |
| 2026-04-30 13:40 | 50.78542 | 17.22519 | 37434 ft | 489 kts | 140° |
| 2026-04-30 13:41 | 50.72863 | 17.28418 | 37426 ft | 489 kts | 140° |
| 2026-04-30 13:41 | 50.67160 | 17.34323 | 37428 ft | 489 kts | 140° |
| 2026-04-30 13:42 | 50.61455 | 17.40212 | 37422 ft | 489 kts | 140° |
| 2026-04-30 13:42 | 50.52937 | 17.48973 | 37429 ft | 491 kts | 141° |
| 2026-04-30 13:43 | 50.47222 | 17.54829 | 37426 ft | 490 kts | 141° |
| 2026-04-30 13:43 | 50.41501 | 17.60674 | 37421 ft | 490 kts | 141° |
| 2026-04-30 13:44 | 50.35772 | 17.66510 | 37414 ft | 490 kts | 141° |
| 2026-04-30 13:44 | 50.30043 | 17.72331 | 37412 ft | 490 kts | 141° |
| 2026-04-30 13:45 | 50.21470 | 17.81009 | 37417 ft | 491 kts | 142° |
| 2026-04-30 13:46 | 50.15725 | 17.86803 | 37405 ft | 491 kts | 142° |
| 2026-04-30 13:46 | 50.09988 | 17.92574 | 37412 ft | 491 kts | 142° |
| 2026-04-30 13:47 | 50.04280 | 17.98300 | 37412 ft | 491 kts | 142° |
| 2026-04-30 13:47 | 49.98215 | 18.03319 | 37418 ft | 496 kts | 150° |
| 2026-04-30 13:48 | 49.91889 | 18.07698 | 37398 ft | 497 kts | 151° |
| 2026-04-30 13:48 | 49.85560 | 18.12085 | 37405 ft | 497 kts | 151° |
| 2026-04-30 13:49 | 49.79281 | 18.16531 | 37404 ft | 496 kts | 151° |
| 2026-04-30 13:49 | 49.73002 | 18.21005 | 37402 ft | 496 kts | 151° |
| 2026-04-30 13:50 | 49.66726 | 18.25463 | 37404 ft | 496 kts | 151° |
| 2026-04-30 13:50 | 49.57343 | 18.32094 | 37401 ft | 497 kts | 151° |
| 2026-04-30 13:51 | 49.51055 | 18.36521 | 37396 ft | 496 kts | 151° |
| 2026-04-30 13:51 | 49.44780 | 18.40928 | 37387 ft | 496 kts | 151° |
| 2026-04-30 13:52 | 49.38507 | 18.45317 | 37365 ft | 496 kts | 152° |
| 2026-04-30 13:52 | 49.32123 | 18.49394 | 37383 ft | 497 kts | 154° |
| 2026-04-30 13:53 | 49.25687 | 18.53284 | 37391 ft | 497 kts | 155° |
| 2026-04-30 13:53 | 49.20349 | 18.56528 | 37378 ft | 496 kts | 155° |
| 2026-04-30 13:54 | 49.12896 | 18.61104 | 37365 ft | 495 kts | 155° |
| 2026-04-30 13:54 | 49.06510 | 18.65037 | 37369 ft | 495 kts | 155° |
| 2026-04-30 13:55 | 49.01196 | 18.68301 | 37365 ft | 494 kts | 155° |
| 2026-04-30 13:55 | 48.93771 | 18.72846 | 37372 ft | 494 kts | 155° |
| 2026-04-30 13:56 | 48.88450 | 18.76094 | 37349 ft | 495 kts | 155° |
| 2026-04-30 13:56 | 48.82041 | 18.79994 | 37352 ft | 496 kts | 155° |
| 2026-04-30 13:57 | 48.75638 | 18.83880 | 37346 ft | 496 kts | 155° |
| 2026-04-30 13:57 | 48.69228 | 18.87760 | 37341 ft | 496 kts | 155° |
| 2026-04-30 13:58 | 48.59640 | 18.93543 | 37329 ft | 496 kts | 155° |
| 2026-04-30 13:59 | 48.53231 | 18.97396 | 37343 ft | 496 kts | 156° |
| 2026-04-30 13:59 | 48.46813 | 19.01244 | 37339 ft | 496 kts | 156° |
| 2026-04-30 14:00 | 48.40394 | 19.05082 | 37338 ft | 496 kts | 156° |
| 2026-04-30 14:00 | 48.30782 | 19.10809 | 37341 ft | 495 kts | 156° |
| 2026-04-30 14:01 | 48.24376 | 19.14614 | 37342 ft | 495 kts | 156° |
| 2026-04-30 14:01 | 48.17962 | 19.18413 | 37349 ft | 495 kts | 156° |
| 2026-04-30 14:02 | 48.11600 | 19.22173 | 37335 ft | 495 kts | 156° |
| 2026-04-30 14:02 | 48.05179 | 19.25873 | 37338 ft | 495 kts | 159° |
| 2026-04-30 14:03 | 47.98604 | 19.28967 | 37345 ft | 495 kts | 162° |
| 2026-04-30 14:03 | 47.91984 | 19.31874 | 37340 ft | 495 kts | 162° |
| 2026-04-30 14:04 | 47.85372 | 19.34822 | 37342 ft | 495 kts | 161° |
| 2026-04-30 14:04 | 47.78831 | 19.37788 | 37352 ft | 494 kts | 162° |
| 2026-04-30 14:05 | 47.72259 | 19.40779 | 37338 ft | 493 kts | 162° |
| 2026-04-30 14:05 | 47.65696 | 19.43760 | 37342 ft | 492 kts | 162° |
| 2026-04-30 14:06 | 47.55863 | 19.48204 | 37344 ft | 491 kts | 162° |
| 2026-04-30 14:07 | 47.46050 | 19.52621 | 37363 ft | 491 kts | 162° |
| 2026-04-30 14:08 | 47.36281 | 19.57001 | 37336 ft | 490 kts | 162° |
| 2026-04-30 14:08 | 47.26480 | 19.61378 | 37343 ft | 490 kts | 162° |
| 2026-04-30 14:09 | 47.19963 | 19.64279 | 37342 ft | 489 kts | 162° |
| 2026-04-30 14:10 | 47.10182 | 19.68619 | 37334 ft | 489 kts | 162° |
| 2026-04-30 14:10 | 47.03663 | 19.71503 | 37332 ft | 489 kts | 163° |
| 2026-04-30 14:11 | 46.97181 | 19.74363 | 37316 ft | 489 kts | 163° |
| 2026-04-30 14:11 | 46.90664 | 19.77230 | 37315 ft | 489 kts | 163° |
| 2026-04-30 14:12 | 46.84135 | 19.80097 | 37319 ft | 489 kts | 163° |
| 2026-04-30 14:12 | 46.77604 | 19.82956 | 37324 ft | 489 kts | 163° |
| 2026-04-30 14:13 | 46.71072 | 19.85809 | 37322 ft | 489 kts | 163° |
| 2026-04-30 14:13 | 46.64582 | 19.88637 | 37314 ft | 490 kts | 163° |
| 2026-04-30 14:14 | 46.58045 | 19.91477 | 37322 ft | 491 kts | 164° |
| 2026-04-30 14:14 | 46.51496 | 19.94316 | 37317 ft | 491 kts | 164° |
| 2026-04-30 14:15 | 46.44938 | 19.97152 | 37304 ft | 492 kts | 164° |
| 2026-04-30 14:15 | 46.38378 | 19.99981 | 37306 ft | 492 kts | 164° |
| 2026-04-30 14:16 | 46.31809 | 20.02808 | 37311 ft | 492 kts | 164° |
| 2026-04-30 14:16 | 46.25217 | 20.05638 | 37304 ft | 493 kts | 164° |
| 2026-04-30 14:17 | 46.18683 | 20.08443 | 37293 ft | 493 kts | 163° |
| 2026-04-30 14:17 | 46.12489 | 20.12674 | 37313 ft | 494 kts | 148° |
| 2026-04-30 14:18 | 46.06687 | 20.18012 | 37304 ft | 494 kts | 147° |
| 2026-04-30 14:18 | 45.97975 | 20.25992 | 37301 ft | 495 kts | 148° |
| 2026-04-30 14:19 | 45.89232 | 20.33837 | 37298 ft | 495 kts | 148° |
| 2026-04-30 14:20 | 45.83375 | 20.39061 | 37292 ft | 495 kts | 148° |
| 2026-04-30 14:20 | 45.74592 | 20.46875 | 37302 ft | 496 kts | 148° |
| 2026-04-30 14:21 | 45.68724 | 20.52082 | 37275 ft | 496 kts | 149° |
| 2026-04-30 14:22 | 45.59919 | 20.59872 | 37276 ft | 496 kts | 149° |
| 2026-04-30 14:22 | 45.51140 | 20.67608 | 37273 ft | 496 kts | 149° |
| 2026-04-30 14:23 | 45.39377 | 20.77931 | 37266 ft | 496 kts | 149° |
| 2026-04-30 14:24 | 45.30554 | 20.85639 | 37257 ft | 496 kts | 149° |
| 2026-04-30 14:25 | 45.18771 | 20.95890 | 37247 ft | 496 kts | 150° |
| 2026-04-30 14:26 | 45.09936 | 21.03542 | 37248 ft | 496 kts | 150° |
| 2026-04-30 14:27 | 45.01138 | 21.11135 | 37252 ft | 496 kts | 150° |
| 2026-04-30 14:27 | 44.95232 | 21.16218 | 37238 ft | 496 kts | 150° |
| 2026-04-30 14:28 | 44.86387 | 21.23805 | 37249 ft | 496 kts | 150° |
| 2026-04-30 14:28 | 44.80527 | 21.28816 | 37228 ft | 496 kts | 151° |
| 2026-04-30 14:29 | 44.69721 | 21.38026 | 37234 ft | 496 kts | 151° |
| 2026-04-30 14:31 | 44.53965 | 21.51382 | 37234 ft | 495 kts | 151° |
| 2026-04-30 14:31 | 44.45149 | 21.58818 | 37225 ft | 494 kts | 152° |
| 2026-04-30 14:32 | 44.36298 | 21.66256 | 37228 ft | 494 kts | 152° |
| 2026-04-30 14:33 | 44.30396 | 21.71202 | 37236 ft | 494 kts | 152° |
| 2026-04-30 14:33 | 44.21571 | 21.78576 | 37251 ft | 494 kts | 153° |
| 2026-04-30 14:34 | 44.15671 | 21.83489 | 37261 ft | 495 kts | 153° |
| 2026-04-30 14:34 | 44.09751 | 21.88409 | 37263 ft | 495 kts | 153° |
| 2026-04-30 14:35 | 44.00866 | 21.95772 | 37250 ft | 495 kts | 153° |
| 2026-04-30 14:36 | 43.94954 | 22.00658 | 37263 ft | 495 kts | 153° |
| 2026-04-30 14:36 | 43.89044 | 22.05529 | 37285 ft | 494 kts | 153° |
| 2026-04-30 14:37 | 43.83127 | 22.10394 | 37274 ft | 494 kts | 153° |
| 2026-04-30 14:37 | 43.77257 | 22.15210 | 37254 ft | 494 kts | 153° |
| 2026-04-30 14:38 | 43.71346 | 22.20049 | 37281 ft | 493 kts | 153° |
| 2026-04-30 14:38 | 43.65431 | 22.24878 | 37279 ft | 493 kts | 153° |
| 2026-04-30 14:39 | 43.59512 | 22.29701 | 37282 ft | 494 kts | 153° |
| 2026-04-30 14:39 | 43.53589 | 22.34515 | 37253 ft | 494 kts | 154° |
| 2026-04-30 14:40 | 43.44677 | 22.41739 | 37268 ft | 495 kts | 154° |
| 2026-04-30 14:40 | 43.38767 | 22.46515 | 37267 ft | 495 kts | 154° |
| 2026-04-30 14:41 | 43.32827 | 22.51306 | 37263 ft | 496 kts | 154° |
| 2026-04-30 14:41 | 43.26869 | 22.56099 | 37261 ft | 495 kts | 154° |
| 2026-04-30 14:42 | 43.20919 | 22.60876 | 37246 ft | 496 kts | 155° |
| 2026-04-30 14:42 | 43.14958 | 22.65650 | 37247 ft | 496 kts | 155° |
| 2026-04-30 14:43 | 43.09004 | 22.70408 | 37245 ft | 496 kts | 155° |
| 2026-04-30 14:43 | 43.04049 | 22.74360 | 37233 ft | 496 kts | 155° |
| 2026-04-30 14:44 | 42.98089 | 22.79106 | 37249 ft | 496 kts | 155° |
| 2026-04-30 14:44 | 42.92360 | 22.84488 | 37240 ft | 502 kts | 148° |
| 2026-04-30 14:45 | 42.86825 | 22.90299 | 37233 ft | 502 kts | 147° |
| 2026-04-30 14:45 | 42.81231 | 22.95985 | 37210 ft | 500 kts | 150° |
| 2026-04-30 14:46 | 42.75523 | 23.01281 | 37225 ft | 500 kts | 152° |
| 2026-04-30 14:46 | 42.69751 | 23.06582 | 37240 ft | 501 kts | 151° |
| 2026-04-30 14:47 | 42.63985 | 23.11942 | 37237 ft | 502 kts | 151° |
| 2026-04-30 14:47 | 42.58223 | 23.17330 | 37210 ft | 502 kts | 151° |
| 2026-04-30 14:48 | 42.52464 | 23.22710 | 37235 ft | 503 kts | 151° |
| 2026-04-30 14:48 | 42.46689 | 23.28089 | 37215 ft | 503 kts | 151° |
| 2026-04-30 14:49 | 42.40926 | 23.33442 | 37236 ft | 503 kts | 151° |
| 2026-04-30 14:49 | 42.35188 | 23.38759 | 37218 ft | 502 kts | 151° |
| 2026-04-30 14:50 | 42.26533 | 23.46757 | 37211 ft | 501 kts | 152° |
| 2026-04-30 14:51 | 42.17890 | 23.54716 | 37193 ft | 501 kts | 151° |
| 2026-04-30 14:52 | 42.09260 | 23.62636 | 37144 ft | 500 kts | 152° |
| 2026-04-30 14:52 | 42.00674 | 23.70490 | 37169 ft | 499 kts | 152° |
| 2026-04-30 14:53 | 41.92054 | 23.78349 | 37147 ft | 499 kts | 152° |
| 2026-04-30 14:54 | 41.80544 | 23.88801 | 37132 ft | 499 kts | 152° |
| 2026-04-30 14:55 | 41.71896 | 23.96626 | 37123 ft | 500 kts | 152° |
| 2026-04-30 14:56 | 41.60368 | 24.07019 | 37091 ft | 500 kts | 152° |
| 2026-04-30 14:57 | 41.51455 | 24.14193 | 37095 ft | 489 kts | 163° |
| 2026-04-30 14:58 | 41.38912 | 24.21154 | 37046 ft | 490 kts | 165° |
| 2026-04-30 14:58 | 41.29505 | 24.26439 | 37053 ft | 489 kts | 165° |
| 2026-04-30 15:00 | 41.13870 | 24.34970 | 37057 ft | 484 kts | 165° |
| 2026-04-30 15:01 | 41.01377 | 24.41748 | 37039 ft | 485 kts | 165° |
| 2026-04-30 15:01 | 40.92006 | 24.46825 | 37018 ft | 485 kts | 165° |
| 2026-04-30 15:02 | 40.85753 | 24.50205 | 37018 ft | 485 kts | 165° |
| 2026-04-30 15:03 | 40.70128 | 24.58616 | 37033 ft | 485 kts | 164° |
| 2026-04-30 15:04 | 40.54516 | 24.66979 | 37031 ft | 485 kts | 164° |
| 2026-04-30 15:06 | 40.38870 | 24.75318 | 37029 ft | 484 kts | 163° |
| 2026-04-30 15:07 | 40.26417 | 24.81924 | 37015 ft | 484 kts | 163° |
| 2026-04-30 15:08 | 40.13940 | 24.88518 | 37025 ft | 483 kts | 163° |
| 2026-04-30 15:09 | 39.98340 | 24.96724 | 37006 ft | 483 kts | 163° |
| 2026-04-30 15:10 | 39.85898 | 25.03241 | 36998 ft | 483 kts | 163° |
| 2026-04-30 15:11 | 39.67186 | 25.12993 | 37007 ft | 482 kts | 163° |
| 2026-04-30 15:13 | 39.51625 | 25.21060 | 36994 ft | 481 kts | 163° |
| 2026-04-30 15:14 | 39.29863 | 25.32276 | 36990 ft | 481 kts | 163° |
| 2026-04-30 15:17 | 39.01914 | 25.46571 | 36984 ft | 480 kts | 163° |
| 2026-04-30 15:19 | 38.77089 | 25.59167 | 36983 ft | 480 kts | 163° |